East Pennsboro, Pennsylvania
Current Conditions -  °F | °C
As of 7:56 PM on Wednesday 26 Nov 2014 (Local Time) from KCXY Reporting Station
Overcast Overcast  
Wind Chill: 27°   Ceiling: 1800
Heat Index: 35°   Visibility: 10mi
Dew Point: 31°   Wind: 10mph
Humidity: 85%   Direction: 330°NNW
Pressure: 29.95"   Gusts: NA
Location:  40.2947°N, 76.9833°W
Report Text: KCXY 270056Z AUTO 33009KT 10SM OVC018 02/M01 A2995 RMK AO2 UPE2357RAB2357E2358 SLP147 P0005 T00171006
Loading
Personal Weather Stations






























Interactive Weather Map New forecast layout! Learn more

10-Day Weather Forecast

Advertisements
Track Severe Weather on mobile